KAMG

Bacon County Airport

Alma, Georgia, USA
METAR KAMG 172053Z AUTO 22009KT 10SM CLR 23/13 A3018 RMK AO2 SLP219 T02330133 56010
Observed Flight Rules
Dec-17 @ 20:53 UTC (36 minutes ago) Visual Flight Rules
Wind Visibility Clouds
220° at 9 knots 10 miles
  • Clear skies
Temperatures Readings
Current 23°C / 73°F
Dewpoint 13°C / 55°F
Humidity 53%
Altimeter 30.18" Hg
Pressure 1021.9 hPa
Elevation 59
METAR KAMG 172053Z AUTO 22009KT 10SM CLR 23/13 A3018 RMK AO2 SLP219 T02330133 56010
Observed Flight Rules
Dec-17 @ 20:53 UTC
(36 minutes ago)
VFR
Wind Visibility
220° at 9 knots 10 miles
Clouds
  • Clear skies
Temperature Dewpoint
23°C / 73°F 13°C / 55°F
Humidity Altimeter Pressure
53% 30.18" Hg 1021.9 hPa